sensor_id;sensor_type;location;lat;lon;timestamp;temperature;humidity
52669;DHT22;59898;52.786;6.892;2023-03-29T00:02:42;5.90;99.90
52669;DHT22;59898;52.786;6.892;2023-03-29T00:06:07;5.90;99.90
52669;DHT22;59898;52.786;6.892;2023-03-29T00:09:30;5.90;99.90
52669;DHT22;59898;52.786;6.892;2023-03-29T00:12:52;5.80;99.90
52669;DHT22;59898;52.786;6.892;2023-03-29T00:16:13;5.90;99.90
52669;DHT22;59898;52.786;6.892;2023-03-29T00:19:34;5.80;99.90
52669;DHT22;59898;52.786;6.892;2023-03-29T00:22:56;5.80;99.90
52669;DHT22;59898;52.786;6.892;2023-03-29T00:26:16;5.80;99.90
52669;DHT22;59898;52.786;6.892;2023-03-29T00:29:37;5.80;99.90
52669;DHT22;59898;52.786;6.892;2023-03-29T00:32:58;5.80;99.90
52669;DHT22;59898;52.786;6.892;2023-03-29T00:36:18;5.80;99.90
52669;DHT22;59898;52.786;6.892;2023-03-29T00:39:41;5.90;99.90
52669;DHT22;59898;52.786;6.892;2023-03-29T00:43:04;5.80;99.90
52669;DHT22;59898;52.786;6.892;2023-03-29T00:46:29;5.80;99.90
52669;DHT22;59898;52.786;6.892;2023-03-29T00:49:51;5.80;99.90
52669;DHT22;59898;52.786;6.892;2023-03-29T00:56:44;5.70;99.90
52669;DHT22;59898;52.786;6.892;2023-03-29T01:00:05;5.70;99.90
52669;DHT22;59898;52.786;6.892;2023-03-29T01:03:34;5.70;99.90
52669;DHT22;59898;52.786;6.892;2023-03-29T01:07:21;6.00;99.90
52669;DHT22;59898;52.786;6.892;2023-03-29T01:10:48;5.70;99.90
52669;DHT22;59898;52.786;6.892;2023-03-29T01:14:21;5.70;99.90
52669;DHT22;59898;52.786;6.892;2023-03-29T01:17:42;5.70;99.90
52669;DHT22;59898;52.786;6.892;2023-03-29T01:21:19;5.70;99.90
52669;DHT22;59898;52.786;6.892;2023-03-29T01:24:50;5.70;99.90
52669;DHT22;59898;52.786;6.892;2023-03-29T01:28:27;5.80;99.90
52669;DHT22;59898;52.786;6.892;2023-03-29T01:31:59;5.70;99.90
52669;DHT22;59898;52.786;6.892;2023-03-29T01:35:44;5.70;99.90
52669;DHT22;59898;52.786;6.892;2023-03-29T01:39:07;5.70;99.90
52669;DHT22;59898;52.786;6.892;2023-03-29T01:42:45;5.70;99.90
52669;DHT22;59898;52.786;6.892;2023-03-29T01:53:37;5.60;99.90
52669;DHT22;59898;52.786;6.892;2023-03-29T01:57:00;5.60;99.90
52669;DHT22;59898;52.786;6.892;2023-03-29T02:00:25;5.60;99.90
52669;DHT22;59898;52.786;6.892;2023-03-29T02:03:49;5.60;99.90
52669;DHT22;59898;52.786;6.892;2023-03-29T02:07:17;5.60;99.90
52669;DHT22;59898;52.786;6.892;2023-03-29T02:10:40;5.60;99.90
52669;DHT22;59898;52.786;6.892;2023-03-29T02:14:01;5.60;99.90
52669;DHT22;59898;52.786;6.892;2023-03-29T02:17:24;5.60;99.90
52669;DHT22;59898;52.786;6.892;2023-03-29T02:20:47;5.50;99.90
52669;DHT22;59898;52.786;6.892;2023-03-29T02:24:11;5.60;99.90
52669;DHT22;59898;52.786;6.892;2023-03-29T02:27:32;5.60;99.90
52669;DHT22;59898;52.786;6.892;2023-03-29T02:30:59;5.60;99.90
52669;DHT22;59898;52.786;6.892;2023-03-29T02:34:28;5.70;99.90
52669;DHT22;59898;52.786;6.892;2023-03-29T02:37:51;5.60;99.90
52669;DHT22;59898;52.786;6.892;2023-03-29T02:41:15;5.50;99.90
52669;DHT22;59898;52.786;6.892;2023-03-29T02:44:39;5.50;99.90
52669;DHT22;59898;52.786;6.892;2023-03-29T02:48:04;5.50;99.90
52669;DHT22;59898;52.786;6.892;2023-03-29T02:51:29;5.50;99.90
52669;DHT22;59898;52.786;6.892;2023-03-29T02:54:53;5.50;99.90
52669;DHT22;59898;52.786;6.892;2023-03-29T02:58:14;5.50;99.90
52669;DHT22;59898;52.786;6.892;2023-03-29T03:01:35;5.60;99.90
52669;DHT22;59898;52.786;6.892;2023-03-29T03:04:56;5.60;99.90
52669;DHT22;59898;52.786;6.892;2023-03-29T03:08:17;5.60;99.90
52669;DHT22;59898;52.786;6.892;2023-03-29T03:11:38;5.60;99.90
52669;DHT22;59898;52.786;6.892;2023-03-29T03:14:59;5.60;99.90
52669;DHT22;59898;52.786;6.892;2023-03-29T03:18:19;5.60;99.90
52669;DHT22;59898;52.786;6.892;2023-03-29T03:21:40;5.60;99.90
52669;DHT22;59898;52.786;6.892;2023-03-29T03:25:01;5.60;99.90
52669;DHT22;59898;52.786;6.892;2023-03-29T03:28:22;5.60;99.90
52669;DHT22;59898;52.786;6.892;2023-03-29T03:31:43;5.60;99.90
52669;DHT22;59898;52.786;6.892;2023-03-29T03:35:05;5.60;99.90
52669;DHT22;59898;52.786;6.892;2023-03-29T03:38:27;5.70;99.90
52669;DHT22;59898;52.786;6.892;2023-03-29T03:41:48;5.70;99.90
52669;DHT22;59898;52.786;6.892;2023-03-29T03:45:09;5.70;99.90
52669;DHT22;59898;52.786;6.892;2023-03-29T03:48:30;5.70;99.90
52669;DHT22;59898;52.786;6.892;2023-03-29T03:51:51;5.60;99.90
52669;DHT22;59898;52.786;6.892;2023-03-29T03:55:12;5.70;99.90
52669;DHT22;59898;52.786;6.892;2023-03-29T03:58:37;5.70;99.90
52669;DHT22;59898;52.786;6.892;2023-03-29T04:01:57;5.70;99.90
52669;DHT22;59898;52.786;6.892;2023-03-29T04:05:19;5.90;99.90
52669;DHT22;59898;52.786;6.892;2023-03-29T04:08:40;5.70;99.90
52669;DHT22;59898;52.786;6.892;2023-03-29T04:12:01;5.80;99.90
52669;DHT22;59898;52.786;6.892;2023-03-29T04:15:22;5.80;99.90
52669;DHT22;59898;52.786;6.892;2023-03-29T04:18:43;5.80;99.90
52669;DHT22;59898;52.786;6.892;2023-03-29T04:22:03;5.80;99.90
52669;DHT22;59898;52.786;6.892;2023-03-29T04:25:24;5.80;99.90
52669;DHT22;59898;52.786;6.892;2023-03-29T04:28:45;5.80;99.90
52669;DHT22;59898;52.786;6.892;2023-03-29T04:32:06;5.80;99.90
52669;DHT22;59898;52.786;6.892;2023-03-29T04:35:26;5.90;99.90
52669;DHT22;59898;52.786;6.892;2023-03-29T04:38:47;5.80;99.90
52669;DHT22;59898;52.786;6.892;2023-03-29T04:42:08;5.80;99.90
52669;DHT22;59898;52.786;6.892;2023-03-29T04:45:30;5.80;99.90
52669;DHT22;59898;52.786;6.892;2023-03-29T04:48:51;5.80;99.90
52669;DHT22;59898;52.786;6.892;2023-03-29T04:52:12;5.80;99.90
52669;DHT22;59898;52.786;6.892;2023-03-29T04:55:33;5.90;99.90
52669;DHT22;59898;52.786;6.892;2023-03-29T04:58:54;5.80;99.90
52669;DHT22;59898;52.786;6.892;2023-03-29T05:02:15;5.80;99.90
52669;DHT22;59898;52.786;6.892;2023-03-29T05:05:36;5.90;99.90
52669;DHT22;59898;52.786;6.892;2023-03-29T05:08:57;5.80;99.90
52669;DHT22;59898;52.786;6.892;2023-03-29T05:12:17;5.80;99.90
52669;DHT22;59898;52.786;6.892;2023-03-29T05:15:38;5.70;99.90
52669;DHT22;59898;52.786;6.892;2023-03-29T05:18:59;5.70;99.90
52669;DHT22;59898;52.786;6.892;2023-03-29T05:22:20;5.80;99.90
52669;DHT22;59898;52.786;6.892;2023-03-29T05:25:41;5.70;99.90
52669;DHT22;59898;52.786;6.892;2023-03-29T05:29:03;6.20;99.90
52669;DHT22;59898;52.786;6.892;2023-03-29T05:32:24;5.80;99.90
52669;DHT22;59898;52.786;6.892;2023-03-29T05:35:45;5.80;99.90
52669;DHT22;59898;52.786;6.892;2023-03-29T05:39:06;5.70;99.90
52669;DHT22;59898;52.786;6.892;2023-03-29T05:42:26;5.70;99.90
52669;DHT22;59898;52.786;6.892;2023-03-29T05:45:47;6.00;99.90
52669;DHT22;59898;52.786;6.892;2023-03-29T05:49:08;5.60;99.90
52669;DHT22;59898;52.786;6.892;2023-03-29T05:52:29;4.90;99.90
52669;DHT22;59898;52.786;6.892;2023-03-29T05:55:49;5.60;99.90
52669;DHT22;59898;52.786;6.892;2023-03-29T05:59:10;5.60;99.90
52669;DHT22;59898;52.786;6.892;2023-03-29T06:02:33;5.60;99.90
52669;DHT22;59898;52.786;6.892;2023-03-29T06:05:57;5.60;99.90
52669;DHT22;59898;52.786;6.892;2023-03-29T06:09:19;5.60;99.90
52669;DHT22;59898;52.786;6.892;2023-03-29T06:12:40;5.50;99.90
52669;DHT22;59898;52.786;6.892;2023-03-29T06:16:00;5.50;99.90
52669;DHT22;59898;52.786;6.892;2023-03-29T06:19:21;5.70;99.90
52669;DHT22;59898;52.786;6.892;2023-03-29T06:22:42;5.60;99.90
52669;DHT22;59898;52.786;6.892;2023-03-29T06:26:03;5.60;99.90
52669;DHT22;59898;52.786;6.892;2023-03-29T06:29:25;5.60;99.90
52669;DHT22;59898;52.786;6.892;2023-03-29T06:32:45;5.60;99.90
52669;DHT22;59898;52.786;6.892;2023-03-29T06:36:09;5.70;99.90
52669;DHT22;59898;52.786;6.892;2023-03-29T06:39:31;5.70;99.90
52669;DHT22;59898;52.786;6.892;2023-03-29T06:42:55;5.70;99.90
52669;DHT22;59898;52.786;6.892;2023-03-29T06:46:17;5.80;99.90
52669;DHT22;59898;52.786;6.892;2023-03-29T06:49:38;6.00;99.90
52669;DHT22;59898;52.786;6.892;2023-03-29T06:52:59;5.80;99.90
52669;DHT22;59898;52.786;6.892;2023-03-29T06:56:19;5.80;99.90
52669;DHT22;59898;52.786;6.892;2023-03-29T06:59:41;5.80;99.90
52669;DHT22;59898;52.786;6.892;2023-03-29T07:03:07;5.90;99.90
52669;DHT22;59898;52.786;6.892;2023-03-29T07:06:30;5.90;99.90
52669;DHT22;59898;52.786;6.892;2023-03-29T07:09:50;5.90;99.90
52669;DHT22;59898;52.786;6.892;2023-03-29T07:13:15;5.90;99.90
52669;DHT22;59898;52.786;6.892;2023-03-29T07:16:36;6.00;99.90
52669;DHT22;59898;52.786;6.892;2023-03-29T07:19:57;6.00;99.90
52669;DHT22;59898;52.786;6.892;2023-03-29T07:23:18;6.00;99.90
52669;DHT22;59898;52.786;6.892;2023-03-29T07:26:39;6.10;99.90
52669;DHT22;59898;52.786;6.892;2023-03-29T07:29:59;6.10;99.90
52669;DHT22;59898;52.786;6.892;2023-03-29T07:33:20;6.10;99.90
52669;DHT22;59898;52.786;6.892;2023-03-29T07:36:41;6.20;99.90
52669;DHT22;59898;52.786;6.892;2023-03-29T07:40:05;6.20;99.90
52669;DHT22;59898;52.786;6.892;2023-03-29T07:43:32;6.20;99.90
52669;DHT22;59898;52.786;6.892;2023-03-29T07:46:54;6.30;99.90
52669;DHT22;59898;52.786;6.892;2023-03-29T07:50:16;6.30;99.90
52669;DHT22;59898;52.786;6.892;2023-03-29T07:53:36;6.40;99.90
52669;DHT22;59898;52.786;6.892;2023-03-29T07:56:57;6.40;99.90
52669;DHT22;59898;52.786;6.892;2023-03-29T08:00:19;6.40;99.90
52669;DHT22;59898;52.786;6.892;2023-03-29T08:03:40;6.40;99.90
52669;DHT22;59898;52.786;6.892;2023-03-29T08:07:01;6.50;99.90
52669;DHT22;59898;52.786;6.892;2023-03-29T08:10:22;6.60;99.90
52669;DHT22;59898;52.786;6.892;2023-03-29T08:13:43;6.60;99.90
52669;DHT22;59898;52.786;6.892;2023-03-29T08:17:03;6.70;99.90
52669;DHT22;59898;52.786;6.892;2023-03-29T08:20:24;6.80;99.90
52669;DHT22;59898;52.786;6.892;2023-03-29T08:23:45;6.80;99.90
52669;DHT22;59898;52.786;6.892;2023-03-29T08:27:06;6.80;99.90
52669;DHT22;59898;52.786;6.892;2023-03-29T08:30:27;6.90;99.90
52669;DHT22;59898;52.786;6.892;2023-03-29T08:33:48;7.00;99.90
52669;DHT22;59898;52.786;6.892;2023-03-29T08:37:08;7.00;99.90
52669;DHT22;59898;52.786;6.892;2023-03-29T08:40:30;7.10;99.90
52669;DHT22;59898;52.786;6.892;2023-03-29T08:47:43;7.20;99.90
52669;DHT22;59898;52.786;6.892;2023-03-29T08:51:16;7.20;99.90
52669;DHT22;59898;52.786;6.892;2023-03-29T08:54:45;7.30;99.90
52669;DHT22;59898;52.786;6.892;2023-03-29T08:58:12;7.30;99.90
52669;DHT22;59898;52.786;6.892;2023-03-29T09:01:34;7.40;99.90
52669;DHT22;59898;52.786;6.892;2023-03-29T09:05:22;7.40;99.90
52669;DHT22;59898;52.786;6.892;2023-03-29T09:08:51;7.60;99.90
52669;DHT22;59898;52.786;6.892;2023-03-29T09:15:53;7.80;99.90
52669;DHT22;59898;52.786;6.892;2023-03-29T09:23:23;8.10;99.90
52669;DHT22;59898;52.786;6.892;2023-03-29T09:26:58;8.20;99.90
52669;DHT22;59898;52.786;6.892;2023-03-29T09:37:48;8.60;99.90
52669;DHT22;59898;52.786;6.892;2023-03-29T09:41:26;8.80;99.90
52669;DHT22;59898;52.786;6.892;2023-03-29T09:44:55;8.90;99.90
52669;DHT22;59898;52.786;6.892;2023-03-29T09:48:19;9.00;99.90
52669;DHT22;59898;52.786;6.892;2023-03-29T09:51:41;9.00;99.90
52669;DHT22;59898;52.786;6.892;2023-03-29T09:55:03;9.00;99.90
52669;DHT22;59898;52.786;6.892;2023-03-29T09:58:28;9.00;99.90
52669;DHT22;59898;52.786;6.892;2023-03-29T10:01:51;9.10;99.90
52669;DHT22;59898;52.786;6.892;2023-03-29T10:05:15;9.10;99.90
52669;DHT22;59898;52.786;6.892;2023-03-29T10:08:42;9.20;99.90
52669;DHT22;59898;52.786;6.892;2023-03-29T10:12:05;9.30;99.90
52669;DHT22;59898;52.786;6.892;2023-03-29T10:15:28;9.30;99.90
52669;DHT22;59898;52.786;6.892;2023-03-29T10:18:50;9.40;99.90
52669;DHT22;59898;52.786;6.892;2023-03-29T10:22:17;9.40;99.90
52669;DHT22;59898;52.786;6.892;2023-03-29T10:25:38;9.40;99.90
52669;DHT22;59898;52.786;6.892;2023-03-29T10:29:04;9.50;99.90
52669;DHT22;59898;52.786;6.892;2023-03-29T10:32:32;9.50;99.90
52669;DHT22;59898;52.786;6.892;2023-03-29T10:35:55;9.60;99.90
52669;DHT22;59898;52.786;6.892;2023-03-29T10:39:17;9.60;99.90
52669;DHT22;59898;52.786;6.892;2023-03-29T10:42:46;9.70;99.90
52669;DHT22;59898;52.786;6.892;2023-03-29T10:49:41;9.80;99.90
52669;DHT22;59898;52.786;6.892;2023-03-29T10:53:21;9.80;99.90
52669;DHT22;59898;52.786;6.892;2023-03-29T10:56:55;9.90;99.90
52669;DHT22;59898;52.786;6.892;2023-03-29T11:00:42;10.00;99.90
52669;DHT22;59898;52.786;6.892;2023-03-29T11:11:37;10.20;99.90
52669;DHT22;59898;52.786;6.892;2023-03-29T11:18:53;10.40;99.90
52669;DHT22;59898;52.786;6.892;2023-03-29T11:30:19;10.80;99.90
52669;DHT22;59898;52.786;6.892;2023-03-29T11:37:50;11.00;99.90
52669;DHT22;59898;52.786;6.892;2023-03-29T11:41:18;11.00;99.90
52669;DHT22;59898;52.786;6.892;2023-03-29T11:44:43;11.10;99.90
52669;DHT22;59898;52.786;6.892;2023-03-29T11:48:54;11.20;99.90
52669;DHT22;59898;52.786;6.892;2023-03-29T11:52:02;11.30;99.90
52669;DHT22;59898;52.786;6.892;2023-03-29T11:55:27;11.30;99.90
52669;DHT22;59898;52.786;6.892;2023-03-29T11:58:54;11.50;99.90
52669;DHT22;59898;52.786;6.892;2023-03-29T12:02:43;11.50;99.90
52669;DHT22;59898;52.786;6.892;2023-03-29T12:06:20;11.70;99.90
52669;DHT22;59898;52.786;6.892;2023-03-29T12:10:19;11.80;99.90
52669;DHT22;59898;52.786;6.892;2023-03-29T12:13:35;11.80;99.90
52669;DHT22;59898;52.786;6.892;2023-03-29T12:17:01;11.80;99.90
52669;DHT22;59898;52.786;6.892;2023-03-29T12:20:26;11.90;99.90
52669;DHT22;59898;52.786;6.892;2023-03-29T12:23:49;11.90;99.90
52669;DHT22;59898;52.786;6.892;2023-03-29T12:41:35;12.40;99.90
52669;DHT22;59898;52.786;6.892;2023-03-29T12:44:58;12.40;99.90
52669;DHT22;59898;52.786;6.892;2023-03-29T12:48:24;12.40;99.90
52669;DHT22;59898;52.786;6.892;2023-03-29T12:51:46;12.50;99.90
52669;DHT22;59898;52.786;6.892;2023-03-29T12:55:27;12.50;99.90
52669;DHT22;59898;52.786;6.892;2023-03-29T13:05:38;12.60;99.90
52669;DHT22;59898;52.786;6.892;2023-03-29T13:12:42;12.60;99.90
52669;DHT22;59898;52.786;6.892;2023-03-29T13:16:13;12.70;99.90
52669;DHT22;59898;52.786;6.892;2023-03-29T13:20:28;12.80;99.90
52669;DHT22;59898;52.786;6.892;2023-03-29T13:27:22;12.80;99.90
52669;DHT22;59898;52.786;6.892;2023-03-29T13:34:49;12.70;99.90
52669;DHT22;59898;52.786;6.892;2023-03-29T13:41:46;12.70;99.90
52669;DHT22;59898;52.786;6.892;2023-03-29T13:45:26;12.70;99.90
52669;DHT22;59898;52.786;6.892;2023-03-29T13:49:02;12.70;99.90
52669;DHT22;59898;52.786;6.892;2023-03-29T13:52:32;12.70;99.90
52669;DHT22;59898;52.786;6.892;2023-03-29T13:55:56;12.60;99.90
52669;DHT22;59898;52.786;6.892;2023-03-29T13:59:19;12.60;99.90
52669;DHT22;59898;52.786;6.892;2023-03-29T14:02:51;12.50;99.90
52669;DHT22;59898;52.786;6.892;2023-03-29T14:06:20;12.60;99.90
52669;DHT22;59898;52.786;6.892;2023-03-29T14:09:44;12.60;99.90
52669;DHT22;59898;52.786;6.892;2023-03-29T14:13:15;12.70;99.90
52669;DHT22;59898;52.786;6.892;2023-03-29T14:16:38;12.80;99.90
52669;DHT22;59898;52.786;6.892;2023-03-29T14:20:02;12.90;99.90
52669;DHT22;59898;52.786;6.892;2023-03-29T14:23:30;12.80;99.90
52669;DHT22;59898;52.786;6.892;2023-03-29T14:26:52;12.80;99.90
52669;DHT22;59898;52.786;6.892;2023-03-29T14:30:26;12.80;99.90
52669;DHT22;59898;52.786;6.892;2023-03-29T14:33:55;12.80;99.90
52669;DHT22;59898;52.786;6.892;2023-03-29T14:37:34;12.80;99.90
52669;DHT22;59898;52.786;6.892;2023-03-29T14:40:59;12.70;99.90
52669;DHT22;59898;52.786;6.892;2023-03-29T14:44:22;12.70;99.90
52669;DHT22;59898;52.786;6.892;2023-03-29T14:47:44;12.60;99.90
52669;DHT22;59898;52.786;6.892;2023-03-29T14:51:08;12.60;99.90
52669;DHT22;59898;52.786;6.892;2023-03-29T14:54:31;12.60;99.90
52669;DHT22;59898;52.786;6.892;2023-03-29T14:57:53;12.70;99.90
52669;DHT22;59898;52.786;6.892;2023-03-29T15:01:20;12.80;99.90
52669;DHT22;59898;52.786;6.892;2023-03-29T15:04:42;12.80;99.90
52669;DHT22;59898;52.786;6.892;2023-03-29T15:08:03;12.80;99.90
52669;DHT22;59898;52.786;6.892;2023-03-29T15:11:28;12.80;99.90
52669;DHT22;59898;52.786;6.892;2023-03-29T15:14:50;12.80;99.90
52669;DHT22;59898;52.786;6.892;2023-03-29T15:18:14;12.80;99.90
52669;DHT22;59898;52.786;6.892;2023-03-29T15:21:37;12.70;99.90
52669;DHT22;59898;52.786;6.892;2023-03-29T15:24:58;12.70;99.90
52669;DHT22;59898;52.786;6.892;2023-03-29T15:28:27;12.60;99.90
52669;DHT22;59898;52.786;6.892;2023-03-29T15:31:55;12.60;99.90
52669;DHT22;59898;52.786;6.892;2023-03-29T15:35:24;12.60;99.90
52669;DHT22;59898;52.786;6.892;2023-03-29T15:38:47;12.50;99.90
52669;DHT22;59898;52.786;6.892;2023-03-29T15:42:09;12.40;99.90
52669;DHT22;59898;52.786;6.892;2023-03-29T15:45:30;12.30;99.90
52669;DHT22;59898;52.786;6.892;2023-03-29T15:48:51;12.30;99.90
52669;DHT22;59898;52.786;6.892;2023-03-29T15:52:12;12.30;99.90
52669;DHT22;59898;52.786;6.892;2023-03-29T15:55:32;12.30;99.90
52669;DHT22;59898;52.786;6.892;2023-03-29T15:58:53;12.30;99.90
52669;DHT22;59898;52.786;6.892;2023-03-29T16:02:14;12.20;99.90
52669;DHT22;59898;52.786;6.892;2023-03-29T16:05:35;12.20;99.90
52669;DHT22;59898;52.786;6.892;2023-03-29T16:08:56;12.10;99.90
52669;DHT22;59898;52.786;6.892;2023-03-29T16:12:17;12.10;99.90
52669;DHT22;59898;52.786;6.892;2023-03-29T16:15:39;12.10;99.90
52669;DHT22;59898;52.786;6.892;2023-03-29T16:19:01;12.10;99.90
52669;DHT22;59898;52.786;6.892;2023-03-29T16:22:22;12.00;99.90
52669;DHT22;59898;52.786;6.892;2023-03-29T16:25:43;12.00;99.90
52669;DHT22;59898;52.786;6.892;2023-03-29T16:29:03;12.00;99.90
52669;DHT22;59898;52.786;6.892;2023-03-29T16:32:24;11.90;99.90
52669;DHT22;59898;52.786;6.892;2023-03-29T16:35:45;11.90;99.90
52669;DHT22;59898;52.786;6.892;2023-03-29T16:39:06;11.90;99.90
52669;DHT22;59898;52.786;6.892;2023-03-29T16:42:26;11.90;99.90
52669;DHT22;59898;52.786;6.892;2023-03-29T16:45:47;11.80;99.90
52669;DHT22;59898;52.786;6.892;2023-03-29T16:49:12;11.80;99.90
52669;DHT22;59898;52.786;6.892;2023-03-29T16:52:37;11.80;99.90
52669;DHT22;59898;52.786;6.892;2023-03-29T16:55:58;11.80;99.90
52669;DHT22;59898;52.786;6.892;2023-03-29T16:59:19;11.70;99.90
52669;DHT22;59898;52.786;6.892;2023-03-29T17:02:40;11.70;99.90
52669;DHT22;59898;52.786;6.892;2023-03-29T17:06:02;11.70;99.90
52669;DHT22;59898;52.786;6.892;2023-03-29T17:09:23;11.60;99.90
52669;DHT22;59898;52.786;6.892;2023-03-29T17:12:43;11.60;99.90
52669;DHT22;59898;52.786;6.892;2023-03-29T17:16:04;11.50;99.90
52669;DHT22;59898;52.786;6.892;2023-03-29T17:19:25;11.50;99.90
52669;DHT22;59898;52.786;6.892;2023-03-29T17:22:46;11.50;99.90
52669;DHT22;59898;52.786;6.892;2023-03-29T17:26:10;11.40;99.90
52669;DHT22;59898;52.786;6.892;2023-03-29T17:29:32;11.40;99.90
52669;DHT22;59898;52.786;6.892;2023-03-29T17:32:53;11.40;99.90
52669;DHT22;59898;52.786;6.892;2023-03-29T17:36:14;11.40;99.90
52669;DHT22;59898;52.786;6.892;2023-03-29T17:39:35;11.40;99.90
52669;DHT22;59898;52.786;6.892;2023-03-29T17:42:57;11.40;99.90
52669;DHT22;59898;52.786;6.892;2023-03-29T17:46:17;11.40;99.90
52669;DHT22;59898;52.786;6.892;2023-03-29T17:49:42;11.30;99.90
52669;DHT22;59898;52.786;6.892;2023-03-29T17:53:02;11.30;99.90
52669;DHT22;59898;52.786;6.892;2023-03-29T17:56:23;11.40;99.90
52669;DHT22;59898;52.786;6.892;2023-03-29T17:59:44;11.30;99.90
52669;DHT22;59898;52.786;6.892;2023-03-29T18:03:05;11.30;99.90
52669;DHT22;59898;52.786;6.892;2023-03-29T18:06:26;11.20;99.90
52669;DHT22;59898;52.786;6.892;2023-03-29T18:09:46;11.20;99.90
52669;DHT22;59898;52.786;6.892;2023-03-29T18:13:07;11.20;99.90
52669;DHT22;59898;52.786;6.892;2023-03-29T18:16:33;11.20;99.90
52669;DHT22;59898;52.786;6.892;2023-03-29T18:19:53;11.20;99.90
52669;DHT22;59898;52.786;6.892;2023-03-29T18:23:14;11.10;99.90
52669;DHT22;59898;52.786;6.892;2023-03-29T18:26:35;11.10;99.90
52669;DHT22;59898;52.786;6.892;2023-03-29T18:29:56;11.10;99.90
52669;DHT22;59898;52.786;6.892;2023-03-29T18:33:18;11.10;99.90
52669;DHT22;59898;52.786;6.892;2023-03-29T18:36:38;11.10;99.90
52669;DHT22;59898;52.786;6.892;2023-03-29T18:39:59;11.10;99.90
52669;DHT22;59898;52.786;6.892;2023-03-29T18:43:20;11.10;99.90
52669;DHT22;59898;52.786;6.892;2023-03-29T18:46:41;11.10;99.90
52669;DHT22;59898;52.786;6.892;2023-03-29T18:50:02;11.10;99.90
52669;DHT22;59898;52.786;6.892;2023-03-29T18:53:24;11.10;99.90
52669;DHT22;59898;52.786;6.892;2023-03-29T18:56:46;11.10;99.90
52669;DHT22;59898;52.786;6.892;2023-03-29T19:00:07;11.10;99.90
52669;DHT22;59898;52.786;6.892;2023-03-29T19:03:32;11.10;99.90
52669;DHT22;59898;52.786;6.892;2023-03-29T19:06:54;11.10;99.90
52669;DHT22;59898;52.786;6.892;2023-03-29T19:10:15;11.10;99.90
52669;DHT22;59898;52.786;6.892;2023-03-29T19:13:36;11.10;99.90
52669;DHT22;59898;52.786;6.892;2023-03-29T19:16:57;11.10;99.90
52669;DHT22;59898;52.786;6.892;2023-03-29T19:20:17;11.10;99.90
52669;DHT22;59898;52.786;6.892;2023-03-29T19:23:40;11.10;99.90
52669;DHT22;59898;52.786;6.892;2023-03-29T19:27:01;11.00;99.90
52669;DHT22;59898;52.786;6.892;2023-03-29T19:30:22;11.00;99.90
52669;DHT22;59898;52.786;6.892;2023-03-29T19:33:43;11.00;99.90
52669;DHT22;59898;52.786;6.892;2023-03-29T19:37:03;11.10;99.90
52669;DHT22;59898;52.786;6.892;2023-03-29T19:40:24;11.10;99.90
52669;DHT22;59898;52.786;6.892;2023-03-29T19:43:46;11.10;99.90
52669;DHT22;59898;52.786;6.892;2023-03-29T19:47:07;11.00;99.90
52669;DHT22;59898;52.786;6.892;2023-03-29T19:50:28;11.00;99.90
52669;DHT22;59898;52.786;6.892;2023-03-29T19:53:49;11.00;99.90
52669;DHT22;59898;52.786;6.892;2023-03-29T19:57:09;11.00;99.90
52669;DHT22;59898;52.786;6.892;2023-03-29T20:00:30;11.00;99.90
52669;DHT22;59898;52.786;6.892;2023-03-29T20:03:51;11.00;99.90
52669;DHT22;59898;52.786;6.892;2023-03-29T20:07:12;11.00;99.90
52669;DHT22;59898;52.786;6.892;2023-03-29T20:10:33;11.00;99.90
52669;DHT22;59898;52.786;6.892;2023-03-29T20:13:54;11.00;99.90
52669;DHT22;59898;52.786;6.892;2023-03-29T20:17:15;11.10;99.90
52669;DHT22;59898;52.786;6.892;2023-03-29T20:20:35;11.00;99.90
52669;DHT22;59898;52.786;6.892;2023-03-29T20:23:56;11.00;99.90
52669;DHT22;59898;52.786;6.892;2023-03-29T20:27:17;11.00;99.90
52669;DHT22;59898;52.786;6.892;2023-03-29T20:30:39;11.10;99.90
52669;DHT22;59898;52.786;6.892;2023-03-29T20:34:00;11.10;99.90
52669;DHT22;59898;52.786;6.892;2023-03-29T20:37:21;11.10;99.90
52669;DHT22;59898;52.786;6.892;2023-03-29T20:40:42;11.10;99.90
52669;DHT22;59898;52.786;6.892;2023-03-29T20:44:04;11.10;99.90
52669;DHT22;59898;52.786;6.892;2023-03-29T20:47:25;11.00;99.90
52669;DHT22;59898;52.786;6.892;2023-03-29T20:50:47;11.10;99.90
52669;DHT22;59898;52.786;6.892;2023-03-29T20:54:08;11.10;99.90
52669;DHT22;59898;52.786;6.892;2023-03-29T20:57:30;11.10;99.90
52669;DHT22;59898;52.786;6.892;2023-03-29T21:00:51;11.10;99.90
52669;DHT22;59898;52.786;6.892;2023-03-29T21:04:12;11.10;99.90
52669;DHT22;59898;52.786;6.892;2023-03-29T21:07:32;11.10;99.90
52669;DHT22;59898;52.786;6.892;2023-03-29T21:10:54;11.00;99.90
52669;DHT22;59898;52.786;6.892;2023-03-29T21:14:15;11.10;99.90
52669;DHT22;59898;52.786;6.892;2023-03-29T21:17:40;11.10;99.90
52669;DHT22;59898;52.786;6.892;2023-03-29T21:21:07;11.10;99.90
52669;DHT22;59898;52.786;6.892;2023-03-29T21:24:28;11.10;99.90
52669;DHT22;59898;52.786;6.892;2023-03-29T21:27:48;11.00;99.90
52669;DHT22;59898;52.786;6.892;2023-03-29T21:31:09;11.00;99.90
52669;DHT22;59898;52.786;6.892;2023-03-29T21:34:30;11.00;99.90
52669;DHT22;59898;52.786;6.892;2023-03-29T21:37:51;11.00;99.90
52669;DHT22;59898;52.786;6.892;2023-03-29T21:41:12;11.00;99.90
52669;DHT22;59898;52.786;6.892;2023-03-29T21:44:33;11.00;99.90
52669;DHT22;59898;52.786;6.892;2023-03-29T21:47:53;11.00;99.90
52669;DHT22;59898;52.786;6.892;2023-03-29T21:51:14;11.00;99.90
52669;DHT22;59898;52.786;6.892;2023-03-29T21:54:35;11.00;99.90
52669;DHT22;59898;52.786;6.892;2023-03-29T21:57:56;11.00;99.90
52669;DHT22;59898;52.786;6.892;2023-03-29T22:01:16;10.90;99.90
52669;DHT22;59898;52.786;6.892;2023-03-29T22:04:37;10.90;99.90
52669;DHT22;59898;52.786;6.892;2023-03-29T22:07:58;10.90;99.90
52669;DHT22;59898;52.786;6.892;2023-03-29T22:11:19;10.90;99.90
52669;DHT22;59898;52.786;6.892;2023-03-29T22:14:39;10.90;99.90
52669;DHT22;59898;52.786;6.892;2023-03-29T22:18:03;10.90;99.90
52669;DHT22;59898;52.786;6.892;2023-03-29T22:21:25;10.90;99.90
52669;DHT22;59898;52.786;6.892;2023-03-29T22:24:47;10.90;99.90
52669;DHT22;59898;52.786;6.892;2023-03-29T22:28:08;10.90;99.90
52669;DHT22;59898;52.786;6.892;2023-03-29T22:31:29;10.90;99.90
52669;DHT22;59898;52.786;6.892;2023-03-29T22:34:50;10.90;99.90
52669;DHT22;59898;52.786;6.892;2023-03-29T22:38:11;10.90;99.90
52669;DHT22;59898;52.786;6.892;2023-03-29T22:41:32;10.90;99.90
52669;DHT22;59898;52.786;6.892;2023-03-29T22:44:52;10.90;99.90
52669;DHT22;59898;52.786;6.892;2023-03-29T22:48:13;10.90;99.90
52669;DHT22;59898;52.786;6.892;2023-03-29T22:51:34;10.90;99.90
52669;DHT22;59898;52.786;6.892;2023-03-29T22:54:54;11.00;99.90
52669;DHT22;59898;52.786;6.892;2023-03-29T22:58:15;11.00;99.90
52669;DHT22;59898;52.786;6.892;2023-03-29T23:01:36;11.10;99.90
52669;DHT22;59898;52.786;6.892;2023-03-29T23:04:57;11.00;99.90
52669;DHT22;59898;52.786;6.892;2023-03-29T23:08:17;11.10;99.90